82C

Mauston-New Lisbon Union Airport

New Lisbon, Wisconsin, USA
METAR K82C 181715Z AUTO 30004KT 5SM BR CLR 19/18 A3002 RMK AO2 T01890177
Observed Flight Rules
Sep-18 @ 17:15 UTC (18 minutes ago) Marginal Visual Flight Rules
Wind Visibility Clouds Conditions
300° at 4 knots 5 miles
  • Clear skies
  • Mist
Temperatures Readings
Current 19°C / 66°F
Dewpoint 18°C / 64°F
Humidity 94%
Altimeter 30.02" Hg
Pressure 1017 hPa
Elevation 276
METAR K82C 181715Z AUTO 30004KT 5SM BR CLR 19/18 A3002 RMK AO2 T01890177
Observed Flight Rules
Sep-18 @ 17:15 UTC
(18 minutes ago)
MVFR
Wind Visibility
300° at 4 knots 5 miles
Clouds
  • Clear skies
Conditions
  • Mist
Temperature Dewpoint
19°C / 66°F 18°C / 64°F
Humidity Altimeter Pressure
94% 30.02" Hg 1017 hPa